createdAt,value
2019-03-28T00:00:44.487Z,24.93
2019-03-28T00:03:32.731Z,24.23
2019-03-28T00:06:04.202Z,24.60
2019-03-28T00:08:40.317Z,23.87
2019-03-28T00:11:10.366Z,24.33
2019-03-28T00:13:47.179Z,26.50
2019-03-28T00:16:18.373Z,22.50
2019-03-28T00:18:50.287Z,34.83
2019-03-28T00:21:20.274Z,24.23
2019-03-28T00:24:19.426Z,27.77
2019-03-28T00:26:57.379Z,24.97
2019-03-28T00:29:29.266Z,27.57
2019-03-28T00:31:59.304Z,22.97
2019-03-28T00:34:29.658Z,26.97
2019-03-28T00:37:00.648Z,28.23
2019-03-28T00:39:30.534Z,29.13
2019-03-28T00:42:01.792Z,24.50
2019-03-28T00:44:32.091Z,29.50
2019-03-28T00:47:01.882Z,26.07
2019-03-28T00:49:31.896Z,25.37
2019-03-28T00:52:02.616Z,25.63
2019-03-28T00:54:33.750Z,26.80
2019-03-28T00:57:04.940Z,24.10
2019-03-28T00:59:38.900Z,23.90
2019-03-28T01:02:14.202Z,28.47
2019-03-28T01:04:50.223Z,23.30
2019-03-28T01:07:22.517Z,22.93
2019-03-28T01:09:52.468Z,23.10
2019-03-28T01:12:46.328Z,23.90
2019-03-28T01:15:31.658Z,28.38
2019-03-28T01:18:03.666Z,25.87
2019-03-28T01:20:33.530Z,20.40
2019-03-28T01:23:03.405Z,28.27
2019-03-28T01:25:33.374Z,25.60
2019-03-28T01:28:03.237Z,28.07
2019-03-28T01:30:33.164Z,22.60
2019-03-28T01:33:05.202Z,23.43
2019-03-28T01:35:37.174Z,21.23
2019-03-28T01:38:08.211Z,25.03
2019-03-28T01:40:39.201Z,22.10
2019-03-28T01:43:10.116Z,24.27
2019-03-28T01:45:43.387Z,26.80
2019-03-28T01:48:14.938Z,23.23
2019-03-28T01:50:55.908Z,20.47
2019-03-28T01:53:26.992Z,25.87
2019-03-28T01:56:04.745Z,26.13
2019-03-28T01:58:35.821Z,24.10
2019-03-28T02:01:06.353Z,21.87
2019-03-28T02:03:40.299Z,24.23
2019-03-28T02:06:12.499Z,22.67
2019-03-28T02:08:42.441Z,21.40
2019-03-28T02:11:12.441Z,27.93
2019-03-28T02:13:46.343Z,26.73
2019-03-28T02:16:18.359Z,24.30
2019-03-28T02:18:50.445Z,19.03
2019-03-28T02:21:21.501Z,23.32
2019-03-28T02:24:02.577Z,20.57
2019-03-28T02:26:39.301Z,26.00
2019-03-28T02:29:09.230Z,29.87
2019-03-28T02:31:39.536Z,27.53
2019-03-28T02:34:09.439Z,23.47
2019-03-28T02:36:39.380Z,27.30
2019-03-28T02:39:09.359Z,25.33
2019-03-28T02:41:50.435Z,25.53
2019-03-28T02:44:26.432Z,22.17
2019-03-28T02:46:59.509Z,24.90
2019-03-28T02:49:29.443Z,25.20
2019-03-28T02:51:59.406Z,28.20
2019-03-28T02:54:31.634Z,22.43
2019-03-28T02:57:09.855Z,27.63
2019-03-28T02:59:53.099Z,23.23
2019-03-28T03:02:24.907Z,25.07
2019-03-28T03:05:05.361Z,26.43
2019-03-28T03:08:09.775Z,29.40
2019-03-28T03:11:22.749Z,30.17
2019-03-28T03:13:53.079Z,25.60
2019-03-28T03:16:23.039Z,26.87
2019-03-28T03:18:52.896Z,23.53
2019-03-28T03:21:22.753Z,25.53
2019-03-28T03:23:56.752Z,26.57
2019-03-28T03:26:31.204Z,24.03
2019-03-28T03:29:01.065Z,27.73
2019-03-28T03:31:31.005Z,28.20
2019-03-28T03:34:01.033Z,32.70
2019-03-28T03:36:34.120Z,28.57
2019-03-28T03:39:05.485Z,27.03
2019-03-28T03:41:47.506Z,29.10
2019-03-28T03:44:19.422Z,24.55
2019-03-28T03:46:51.384Z,27.90
2019-03-28T03:49:21.304Z,29.90
2019-03-28T03:51:52.718Z,32.10
2019-03-28T03:54:29.367Z,31.73
2019-03-28T03:57:01.221Z,26.70
2019-03-28T03:59:31.209Z,27.27
2019-03-28T04:02:01.165Z,31.40
2019-03-28T04:04:32.321Z,30.77
2019-03-28T04:07:03.401Z,28.67
2019-03-28T04:09:33.394Z,30.93
2019-03-28T04:12:04.485Z,29.93
2019-03-28T04:14:34.369Z,26.90
2019-03-28T04:17:04.425Z,30.13
2019-03-28T04:19:37.526Z,26.23
2019-03-28T04:22:09.928Z,29.60
2019-03-28T04:24:40.361Z,28.03
2019-03-28T04:27:10.550Z,29.07
2019-03-28T04:29:41.628Z,30.73
2019-03-28T04:32:11.564Z,26.57
2019-03-28T04:34:41.557Z,26.33
2019-03-28T04:37:17.584Z,32.93
2019-03-28T04:39:48.743Z,30.13
2019-03-28T04:42:20.618Z,27.37
2019-03-28T04:44:50.583Z,29.83
2019-03-28T04:47:34.450Z,34.92
2019-03-28T04:50:12.191Z,25.63
2019-03-28T04:52:48.225Z,38.30
2019-03-28T04:55:18.212Z,25.47
2019-03-28T04:57:57.445Z,28.30
2019-03-28T05:00:27.347Z,31.07
2019-03-28T05:02:59.293Z,28.43
2019-03-28T05:05:29.331Z,29.07
2019-03-28T05:07:59.605Z,25.20
2019-03-28T05:10:34.950Z,30.23
2019-03-28T05:13:05.181Z,28.97
2019-03-28T05:15:37.493Z,29.73
2019-03-28T05:18:07.379Z,28.00
2019-03-28T05:20:41.827Z,26.70
2019-03-28T05:23:17.905Z,28.53
2019-03-28T05:25:50.601Z,27.77
2019-03-28T05:28:22.637Z,29.60
2019-03-28T05:30:53.817Z,28.83
2019-03-28T05:33:25.904Z,28.70
2019-03-28T05:35:56.144Z,28.50
2019-03-28T05:38:27.361Z,26.87
2019-03-28T05:40:58.795Z,29.50
2019-03-28T05:43:28.649Z,28.67
2019-03-28T05:46:04.792Z,31.10
2019-03-28T05:48:34.628Z,30.93
2019-03-28T05:51:04.600Z,35.63
2019-03-28T05:53:34.832Z,29.23
2019-03-28T05:56:05.608Z,33.07
2019-03-28T05:58:35.510Z,29.57
2019-03-28T06:01:07.153Z,27.82
2019-03-28T06:03:37.062Z,30.63
2019-03-28T06:06:07.170Z,29.77
2019-03-28T06:08:37.384Z,31.97
2019-03-28T06:11:07.602Z,30.67
2019-03-28T06:13:37.483Z,33.80
2019-03-28T06:16:07.531Z,33.27
2019-03-28T06:18:38.627Z,38.97
2019-03-28T06:21:08.464Z,38.13
2019-03-28T06:23:39.365Z,39.97
2019-03-28T06:26:09.579Z,36.90
2019-03-28T06:28:39.434Z,42.83
2019-03-28T06:31:10.616Z,43.20
2019-03-28T06:33:40.967Z,41.83
2019-03-28T06:36:17.054Z,39.63
2019-03-28T06:38:48.181Z,45.27
2019-03-28T06:41:20.091Z,44.73
2019-03-28T06:43:50.127Z,36.90
2019-03-28T06:46:19.898Z,43.23
2019-03-28T06:48:51.071Z,43.97
2019-03-28T06:51:21.074Z,38.37
2019-03-28T06:53:53.084Z,40.00
2019-03-28T06:56:25.421Z,37.53
2019-03-28T06:58:55.657Z,35.23
2019-03-28T07:01:25.941Z,43.40
2019-03-28T07:03:55.955Z,41.10
2019-03-28T07:06:41.534Z,40.40
2019-03-28T07:09:13.775Z,44.10
2019-03-28T07:11:46.902Z,41.63
2019-03-28T07:14:17.151Z,39.23
2019-03-28T07:16:47.181Z,41.57
2019-03-28T07:19:17.141Z,36.03
2019-03-28T07:21:47.049Z,46.73
2019-03-28T07:24:19.922Z,47.17
2019-03-28T07:26:49.807Z,44.93
2019-03-28T07:29:26.636Z,42.00
2019-03-28T07:31:58.666Z,41.63
2019-03-28T07:34:31.732Z,43.83
2019-03-28T07:37:03.807Z,40.43
2019-03-28T07:39:35.155Z,37.57
2019-03-28T07:42:06.828Z,35.70
2019-03-28T07:44:37.667Z,34.53
2019-03-28T07:47:15.127Z,41.03
2019-03-28T07:50:01.222Z,31.13
2019-03-28T07:52:33.258Z,26.97
2019-03-28T07:55:03.533Z,29.67
2019-03-28T07:57:37.088Z,33.07
2019-03-28T08:00:09.569Z,31.10
2019-03-28T08:02:42.578Z,28.40
2019-03-28T08:05:13.546Z,24.63
2019-03-28T08:07:45.763Z,29.20
2019-03-28T08:10:19.491Z,29.03
2019-03-28T08:12:49.631Z,28.13
2019-03-28T08:15:19.622Z,23.52
2019-03-28T08:17:50.689Z,21.30
2019-03-28T08:20:20.770Z,27.20
2019-03-28T08:22:50.983Z,30.90
2019-03-28T08:25:20.884Z,30.47
2019-03-28T08:27:50.879Z,25.33
2019-03-28T08:30:35.165Z,24.50
2019-03-28T08:33:06.244Z,23.32
2019-03-28T08:35:43.517Z,31.63
2019-03-28T08:38:13.338Z,23.77
2019-03-28T08:40:47.059Z,24.27
2019-03-28T08:43:18.149Z,24.00
2019-03-28T08:45:48.048Z,24.73
2019-03-28T08:48:17.961Z,24.03
2019-03-28T08:50:47.893Z,23.83
2019-03-28T08:53:25.237Z,20.80
2019-03-28T08:55:56.317Z,24.47
2019-03-28T08:58:26.235Z,20.67
2019-03-28T09:00:57.384Z,23.07
2019-03-28T09:03:33.498Z,13.33
2019-03-28T09:06:03.420Z,14.60
2019-03-28T09:08:33.285Z,17.33
2019-03-28T09:11:09.134Z,16.53
2019-03-28T09:13:45.846Z,13.37
2019-03-28T09:16:29.717Z,13.70
2019-03-28T09:18:59.522Z,14.57
2019-03-28T09:21:31.501Z,10.40
2019-03-28T09:24:04.824Z,12.17
2019-03-28T09:26:36.670Z,11.60
2019-03-28T09:29:06.711Z,10.80
2019-03-28T09:31:38.580Z,7.17
2019-03-28T09:34:13.453Z,8.53
2019-03-28T09:36:43.291Z,11.07
2019-03-28T09:39:13.247Z,10.77
2019-03-28T09:41:45.207Z,11.80
2019-03-28T09:44:20.512Z,8.20
2019-03-28T09:46:56.650Z,6.70
2019-03-28T09:49:32.634Z,4.70
2019-03-28T09:52:04.619Z,4.87
2019-03-28T09:54:43.400Z,7.57
2019-03-28T09:57:13.380Z,7.07
2019-03-28T09:59:50.221Z,6.73
2019-03-28T10:02:20.180Z,7.97
2019-03-28T10:04:55.562Z,8.50
2019-03-28T10:07:33.826Z,7.93
2019-03-28T10:10:05.353Z,7.80
2019-03-28T10:12:44.247Z,11.57
2019-03-28T10:15:20.470Z,7.53
2019-03-28T10:17:51.598Z,7.97
2019-03-28T10:20:23.560Z,9.13
2019-03-28T10:22:54.732Z,10.33
2019-03-28T10:25:24.622Z,8.70
2019-03-28T10:27:56.581Z,10.70
2019-03-28T10:30:51.562Z,6.87
2019-03-28T10:33:27.619Z,6.57
2019-03-28T10:36:03.887Z,5.67
2019-03-28T10:38:33.907Z,4.63
2019-03-28T10:41:03.709Z,6.07
2019-03-28T10:43:35.848Z,5.10
2019-03-28T10:46:12.663Z,6.73
2019-03-28T10:48:43.535Z,12.20
2019-03-28T10:51:16.602Z,8.00
2019-03-28T10:53:46.528Z,5.53
2019-03-28T10:56:22.059Z,7.03
2019-03-28T10:58:47.987Z,6.00
2019-03-28T11:01:32.447Z,6.47
2019-03-28T11:03:49.476Z,9.30
2019-03-28T11:06:20.617Z,9.10
2019-03-28T11:08:50.515Z,9.90
2019-03-28T11:11:22.606Z,17.23
2019-03-28T11:13:52.910Z,10.37
2019-03-28T11:16:25.955Z,17.43
2019-03-28T11:18:55.920Z,8.90
2019-03-28T11:21:25.903Z,11.07
2019-03-28T11:23:55.757Z,11.53
2019-03-28T11:26:26.937Z,10.53
2019-03-28T11:29:03.023Z,10.73
2019-03-28T11:31:46.259Z,10.83
2019-03-28T11:34:08.537Z,11.47
2019-03-28T11:36:38.502Z,11.47
2019-03-28T11:39:15.295Z,16.63
2019-03-28T11:41:45.273Z,12.30
2019-03-28T11:44:21.299Z,10.93
2019-03-28T11:47:10.123Z,10.00
2019-03-28T11:49:40.315Z,10.40
2019-03-28T11:52:10.263Z,9.40
2019-03-28T11:54:40.231Z,9.80
2019-03-28T11:57:10.142Z,10.67
2019-03-28T11:59:40.007Z,9.30
2019-03-28T12:02:19.738Z,8.77
2019-03-28T12:04:43.215Z,10.33
2019-03-28T12:07:13.090Z,10.90
2019-03-28T12:09:43.890Z,14.80
2019-03-28T12:12:14.978Z,11.30
2019-03-28T12:14:46.105Z,15.40
2019-03-28T12:17:16.042Z,9.57
2019-03-28T12:19:45.951Z,12.07
2019-03-28T12:22:15.866Z,10.50
2019-03-28T12:24:55.214Z,11.67
2019-03-28T12:27:25.094Z,11.33
2019-03-28T12:29:54.982Z,11.23
2019-03-28T12:32:25.020Z,11.77
2019-03-28T12:35:02.612Z,9.47
2019-03-28T12:37:32.654Z,14.97
2019-03-28T12:40:03.381Z,10.13
2019-03-28T12:42:34.409Z,14.70
2019-03-28T12:45:04.810Z,10.67
2019-03-28T12:47:51.034Z,11.93
2019-03-28T12:50:21.007Z,13.27
2019-03-28T12:52:52.131Z,12.20
2019-03-28T12:55:23.235Z,14.33
2019-03-28T12:57:53.190Z,11.93
2019-03-28T13:00:36.953Z,11.93
2019-03-28T13:03:06.958Z,15.87
2019-03-28T13:05:47.878Z,13.30
2019-03-28T13:08:17.993Z,13.80
2019-03-28T13:10:48.114Z,12.47
2019-03-28T13:13:18.029Z,12.67
2019-03-28T13:15:48.029Z,12.97
2019-03-28T13:19:02.237Z,10.93
2019-03-28T13:22:15.551Z,12.73
2019-03-28T13:24:54.408Z,12.47
2019-03-28T13:27:34.511Z,14.13
2019-03-28T13:30:04.452Z,11.87
2019-03-28T13:32:41.662Z,14.87
2019-03-28T13:35:09.698Z,10.13
2019-03-28T13:37:39.546Z,14.63
2019-03-28T13:40:13.120Z,15.63
2019-03-28T13:42:43.066Z,12.63
2019-03-28T13:45:15.036Z,14.37
2019-03-28T13:47:48.035Z,12.30
2019-03-28T13:50:35.038Z,11.70
2019-03-28T13:53:14.668Z,18.03
2019-03-28T13:55:44.699Z,16.73
2019-03-28T13:58:14.878Z,17.27
2019-03-28T14:00:44.765Z,20.33
2019-03-28T14:03:20.883Z,17.87
2019-03-28T14:05:50.724Z,19.87
2019-03-28T14:08:28.473Z,21.60
2019-03-28T14:10:58.357Z,20.80
2019-03-28T14:13:30.319Z,20.47
2019-03-28T14:16:05.719Z,17.93
2019-03-28T14:18:40.798Z,17.17
2019-03-28T14:21:10.707Z,18.80
2019-03-28T14:23:44.579Z,16.70
2019-03-28T14:26:15.479Z,16.50
2019-03-28T14:28:56.611Z,15.77
2019-03-28T14:31:35.376Z,22.90
2019-03-28T14:34:07.013Z,15.70
2019-03-28T14:36:36.923Z,17.40
2019-03-28T14:39:08.246Z,25.40
2019-03-28T14:41:46.348Z,17.65
2019-03-28T14:44:27.846Z,18.13
2019-03-28T14:47:05.723Z,19.07
2019-03-28T14:49:35.565Z,15.23
2019-03-28T14:52:07.548Z,15.80
2019-03-28T14:54:47.696Z,18.27
2019-03-28T14:57:18.060Z,18.27
2019-03-28T14:59:49.968Z,22.37
2019-03-28T15:02:19.844Z,20.93
2019-03-28T15:04:50.706Z,17.87
2019-03-28T15:07:27.468Z,18.00
2019-03-28T15:09:57.330Z,15.93
2019-03-28T15:12:33.398Z,19.67
2019-03-28T15:15:28.898Z,20.53
2019-03-28T15:18:16.837Z,21.53
2019-03-28T15:20:58.546Z,16.30
2019-03-28T15:23:34.993Z,16.67
2019-03-28T15:26:07.101Z,21.87
2019-03-28T15:28:37.244Z,19.40
2019-03-28T15:31:10.102Z,17.20
2019-03-28T15:33:40.194Z,17.37
2019-03-28T15:36:10.232Z,17.97
2019-03-28T15:38:40.216Z,20.33
2019-03-28T15:41:10.235Z,21.63
2019-03-28T15:43:40.100Z,19.27
2019-03-28T15:46:09.996Z,20.33
2019-03-28T15:48:40.008Z,18.50
2019-03-28T15:51:12.073Z,17.70
2019-03-28T15:53:44.167Z,21.67
2019-03-28T15:56:15.488Z,17.80
2019-03-28T15:58:55.515Z,22.93
2019-03-28T16:01:25.445Z,17.50
2019-03-28T16:03:55.302Z,18.70
2019-03-28T16:06:25.197Z,19.30
2019-03-28T16:08:55.204Z,18.10
2019-03-28T16:11:25.064Z,17.83
2019-03-28T16:13:55.784Z,18.57
2019-03-28T16:16:35.711Z,17.43
2019-03-28T16:19:06.260Z,20.10
2019-03-28T16:21:36.216Z,16.13
2019-03-28T16:24:07.401Z,19.07
2019-03-28T16:26:47.965Z,20.17
2019-03-28T16:29:17.917Z,18.30
2019-03-28T16:31:47.757Z,18.33
2019-03-28T16:34:17.753Z,21.17
2019-03-28T16:36:47.677Z,19.90
2019-03-28T16:39:18.783Z,21.80
2019-03-28T16:41:55.301Z,17.53
2019-03-28T16:44:25.113Z,18.17
2019-03-28T16:46:54.993Z,19.47
